Time;durP1;ratioP1;P1;durP2;ratioP2;P2;SDS_P1;SDS_P2;PMS_P1;PMS_P2;Temp;Humidity;BMP_temperature;BMP_pressure;BME280_temperature;BME280_humidity;BME280_pressure;Samples;Min_cycle;Max_cycle;Signal;HPM_P1;HPM_P2
2021/03/09 00:02:16;;;;;;;11.00;8.10;;;17.10;99.90;;;;;;5052262;28;20070;-73
2021/03/09 00:04:41;;;;;;;10.88;7.72;;;17.20;99.90;;;;;;5053126;28;20024;-74
2021/03/09 00:07:07;;;;;;;11.40;8.20;;;17.10;99.90;;;;;;5052368;28;20032;-68
2021/03/09 00:09:33;;;;;;;10.82;8.05;;;17.10;99.90;;;;;;5052228;28;20036;-73
2021/03/09 00:11:58;;;;;;;11.43;8.75;;;17.10;99.90;;;;;;5052220;28;20031;-74
2021/03/09 00:14:24;;;;;;;13.30;8.77;;;17.10;99.90;;;;;;5050882;28;20051;-69
2021/03/09 00:16:50;;;;;;;10.75;7.95;;;17.10;99.90;;;;;;5052130;28;20381;-69
2021/03/09 00:19:15;;;;;;;11.27;7.97;;;17.10;99.90;;;;;;5052328;28;20028;-70
2021/03/09 00:21:41;;;;;;;9.85;8.00;;;17.10;99.90;;;;;;5052585;28;20150;-73
2021/03/09 00:24:07;;;;;;;12.35;8.18;;;17.00;99.90;;;;;;5052493;28;20029;-70
2021/03/09 00:26:32;;;;;;;12.02;8.52;;;17.00;99.90;;;;;;5051468;28;20044;-72
2021/03/09 00:28:58;;;;;;;14.25;8.77;;;17.00;99.90;;;;;;5052038;28;20025;-74
2021/03/09 00:31:24;;;;;;;9.75;8.18;;;17.00;99.90;;;;;;5051827;28;20044;-74
2021/03/09 00:33:49;;;;;;;11.73;8.30;;;17.00;99.90;;;;;;5051928;28;20043;-70
2021/03/09 00:36:15;;;;;;;10.85;8.25;;;16.90;99.90;;;;;;5051828;28;20021;-70
2021/03/09 00:38:40;;;;;;;11.00;8.35;;;16.90;99.90;;;;;;5052080;28;20029;-72
2021/03/09 00:41:06;;;;;;;12.48;8.60;;;16.90;99.90;;;;;;5051814;28;20079;-70
2021/03/09 00:43:31;;;;;;;11.70;8.88;;;17.00;99.90;;;;;;5051175;28;20048;-67
2021/03/09 00:45:57;;;;;;;11.25;8.20;;;16.90;99.90;;;;;;5052152;28;20028;-71
2021/03/09 00:48:23;;;;;;;11.82;8.73;;;16.90;99.90;;;;;;5051186;28;20395;-68
2021/03/09 00:50:48;;;;;;;10.13;8.02;;;16.90;99.90;;;;;;5051527;28;20029;-70
2021/03/09 00:53:14;;;;;;;11.05;8.45;;;16.90;99.90;;;;;;5050487;28;20052;-73
2021/03/09 00:55:40;;;;;;;10.35;8.32;;;16.90;99.90;;;;;;5051527;28;20033;-69
2021/03/09 00:58:05;;;;;;;10.95;8.10;;;16.90;99.90;;;;;;5051603;28;20538;-69
2021/03/09 01:00:31;;;;;;;12.02;9.07;;;16.90;99.90;;;;;;5051110;28;20040;-74
2021/03/09 01:02:58;;;;;;;10.52;8.00;;;16.80;99.90;;;;;;5051365;28;20542;-65
2021/03/09 01:05:24;;;;;;;11.60;8.27;;;16.80;99.90;;;;;;5051820;28;20201;-74
2021/03/09 01:07:50;;;;;;;10.18;8.55;;;16.80;99.90;;;;;;5051504;28;20060;-70
2021/03/09 01:10:18;;;;;;;13.15;8.50;;;16.80;99.90;;;;;;5051702;28;20076;-68
2021/03/09 01:12:43;;;;;;;12.57;8.43;;;16.80;99.90;;;;;;5051633;28;20480;-74
2021/03/09 01:15:10;;;;;;;11.13;8.40;;;16.80;99.90;;;;;;5051244;28;20040;-70
2021/03/09 01:17:35;;;;;;;12.10;8.55;;;16.80;99.90;;;;;;5051043;28;20029;-72
2021/03/09 01:20:03;;;;;;;11.70;9.07;;;16.70;99.90;;;;;;5051544;28;20096;-72
2021/03/09 01:22:29;;;;;;;12.07;9.23;;;16.80;99.90;;;;;;5050972;28;20021;-72
2021/03/09 01:24:54;;;;;;;12.85;9.77;;;16.80;99.90;;;;;;5051615;28;20123;-75
2021/03/09 01:27:20;;;;;;;11.68;8.90;;;16.80;99.90;;;;;;5051419;28;20476;-74
2021/03/09 01:29:46;;;;;;;11.52;8.70;;;16.80;99.90;;;;;;5051373;28;20039;-73
2021/03/09 01:32:11;;;;;;;13.05;9.30;;;16.80;99.90;;;;;;5051427;28;20033;-73
2021/03/09 01:34:37;;;;;;;11.73;8.80;;;16.70;99.90;;;;;;5051389;28;20051;-67
2021/03/09 01:37:04;;;;;;;11.77;9.15;;;16.80;99.90;;;;;;5051157;28;20368;-68
2021/03/09 01:39:29;;;;;;;12.02;9.15;;;16.70;99.90;;;;;;5050952;28;20109;-69
2021/03/09 01:41:56;;;;;;;11.40;8.70;;;16.70;99.90;;;;;;5050527;28;20115;-67
2021/03/09 01:44:22;;;;;;;12.88;9.48;;;16.70;99.90;;;;;;5050650;28;20136;-66
2021/03/09 01:46:48;;;;;;;12.65;10.02;;;16.70;99.90;;;;;;5051536;28;20489;-67
2021/03/09 01:49:17;;;;;;;12.02;9.35;;;16.70;99.90;;;;;;5050986;28;20036;-67
2021/03/09 01:51:44;;;;;;;13.43;9.35;;;16.70;99.90;;;;;;5051403;28;20078;-67
2021/03/09 01:54:13;;;;;;;13.68;9.20;;;16.70;99.90;;;;;;5050134;28;20017;-68
2021/03/09 01:56:40;;;;;;;13.70;9.23;;;16.70;99.90;;;;;;5051232;28;20048;-68
2021/03/09 01:59:07;;;;;;;13.57;9.25;;;16.70;99.90;;;;;;5051110;28;20036;-67
2021/03/09 02:01:36;;;;;;;11.15;8.75;;;16.60;99.90;;;;;;5050694;28;20044;-71
2021/03/09 02:04:03;;;;;;;12.73;9.63;;;16.70;99.90;;;;;;5051174;28;20031;-68
2021/03/09 02:06:29;;;;;;;12.10;9.57;;;16.60;99.90;;;;;;5053537;28;20083;-69
2021/03/09 02:08:55;;;;;;;16.65;9.93;;;16.60;99.90;;;;;;5054791;28;20025;-70
2021/03/09 02:11:51;;;;;;;11.57;9.15;;;16.60;99.90;;;;;;5054364;28;20037;-68
2021/03/09 02:14:25;;;;;;;13.80;9.88;;;16.60;99.90;;;;;;5036509;28;20538;-72
2021/03/09 02:17:20;;;;;;;11.80;9.00;;;16.60;99.90;;;;;;5054505;28;20040;-67
2021/03/09 02:20:04;;;;;;;14.55;10.50;;;16.50;99.90;;;;;;5054449;28;20021;-67
2021/03/09 02:22:48;;;;;;;14.15;9.60;;;16.50;99.90;;;;;;5054514;28;20052;-67
2021/03/09 02:25:37;;;;;;;11.90;8.65;;;16.50;99.90;;;;;;5054348;28;20052;-70
2021/03/09 02:28:02;;;;;;;15.05;9.68;;;16.50;99.90;;;;;;5033361;28;20051;-67
2021/03/09 02:30:37;;;;;;;13.30;9.88;;;16.50;99.90;;;;;;5053939;28;20388;-68
2021/03/09 02:33:19;;;;;;;13.88;9.13;;;16.50;99.90;;;;;;5053613;28;20041;-68
2021/03/09 02:36:16;;;;;;;11.80;9.57;;;16.50;99.90;;;;;;5053948;28;20027;-67
2021/03/09 02:38:45;;;;;;;12.13;9.55;;;16.40;99.90;;;;;;5045742;28;20124;-65
2021/03/09 02:41:13;;;;;;;12.20;9.30;;;16.40;99.90;;;;;;5054097;28;20448;-68
2021/03/09 02:43:43;;;;;;;11.75;9.02;;;16.40;99.90;;;;;;5054091;28;20021;-65
2021/03/09 02:46:09;;;;;;;13.88;10.73;;;16.40;99.90;;;;;;5054117;28;20039;-68
2021/03/09 02:48:36;;;;;;;12.32;9.70;;;16.40;99.90;;;;;;5053763;28;20055;-66
2021/03/09 02:51:04;;;;;;;13.30;10.48;;;16.40;99.90;;;;;;5053624;28;20159;-67
2021/03/09 02:53:33;;;;;;;14.70;10.00;;;16.40;99.90;;;;;;5053816;28;20037;-75
2021/03/09 02:56:03;;;;;;;14.40;10.13;;;16.40;99.90;;;;;;5052619;28;20028;-71
2021/03/09 02:58:30;;;;;;;12.40;9.50;;;16.40;99.90;;;;;;5054001;28;20032;-71
2021/03/09 03:00:57;;;;;;;12.65;9.70;;;16.30;99.90;;;;;;5053469;28;20020;-72
2021/03/09 03:03:25;;;;;;;13.20;9.60;;;16.30;99.90;;;;;;5053782;28;20075;-73
2021/03/09 03:05:54;;;;;;;12.77;9.77;;;16.30;99.90;;;;;;5053986;28;20044;-73
2021/03/09 03:08:20;;;;;;;13.27;9.77;;;16.40;99.90;;;;;;5054028;28;20056;-72
2021/03/09 03:10:47;;;;;;;11.90;9.90;;;16.30;99.90;;;;;;5053488;28;20448;-72
2021/03/09 03:13:15;;;;;;;14.80;10.60;;;16.30;99.90;;;;;;5052999;28;20051;-75
2021/03/09 03:15:42;;;;;;;14.45;10.65;;;16.30;99.90;;;;;;5053277;28;20044;-71
2021/03/09 03:18:16;;;;;;;14.75;10.18;;;16.30;99.90;;;;;;5052750;28;20048;-73
2021/03/09 03:20:44;;;;;;;14.18;10.27;;;16.30;99.90;;;;;;5050184;28;20029;-72
2021/03/09 03:23:11;;;;;;;14.63;10.57;;;16.30;99.90;;;;;;5053615;28;20036;-75
2021/03/09 03:25:37;;;;;;;18.15;10.10;;;16.30;99.90;;;;;;5052990;28;20507;-75
2021/03/09 03:28:07;;;;;;;13.25;9.93;;;16.30;99.90;;;;;;5053502;28;20028;-76
2021/03/09 03:30:33;;;;;;;13.13;9.65;;;16.30;99.90;;;;;;5053088;28;20049;-76
2021/03/09 03:32:59;;;;;;;14.80;10.95;;;16.20;99.90;;;;;;5053464;28;20469;-74
2021/03/09 03:35:24;;;;;;;12.60;9.00;;;16.20;99.90;;;;;;5053015;28;20071;-68
2021/03/09 03:37:50;;;;;;;13.70;9.38;;;16.20;99.90;;;;;;5053494;28;20025;-75
2021/03/09 03:40:18;;;;;;;13.32;9.98;;;16.20;99.90;;;;;;5053225;28;20036;-76
2021/03/09 03:42:44;;;;;;;15.85;10.15;;;16.20;99.90;;;;;;5052406;28;20098;-71
2021/03/09 03:45:11;;;;;;;13.90;9.52;;;16.20;99.90;;;;;;5052967;28;20047;-74
2021/03/09 03:47:38;;;;;;;13.02;9.70;;;16.20;99.90;;;;;;5051746;28;20024;-76
2021/03/09 03:50:05;;;;;;;11.68;9.57;;;16.20;99.90;;;;;;5052222;28;20025;-72
2021/03/09 03:52:42;;;;;;;12.55;10.23;;;16.20;99.90;;;;;;5052930;28;20033;-75
2021/03/09 03:55:34;;;;;;;12.75;9.20;;;16.10;99.90;;;;;;5053037;28;20025;-66
2021/03/09 03:58:37;;;;;;;12.30;9.15;;;16.20;99.90;;;;;;5052402;28;20025;-65
2021/03/09 04:01:06;;;;;;;15.00;9.63;;;16.10;99.90;;;;;;5035918;28;20045;-66
2021/03/09 04:03:33;;;;;;;13.32;9.18;;;16.10;99.90;;;;;;5052885;28;20021;-65
2021/03/09 04:06:03;;;;;;;11.82;8.85;;;16.10;99.90;;;;;;5052389;28;20120;-65
2021/03/09 04:08:30;;;;;;;12.70;9.18;;;16.10;99.90;;;;;;5052214;28;20036;-66
2021/03/09 04:10:56;;;;;;;12.23;8.88;;;16.10;99.90;;;;;;5051858;28;20044;-67
2021/03/09 04:13:25;;;;;;;12.50;9.50;;;16.10;99.90;;;;;;5052584;28;20025;-65
2021/03/09 04:15:53;;;;;;;14.60;10.18;;;16.00;99.90;;;;;;5052342;28;20452;-67
2021/03/09 04:18:19;;;;;;;14.23;9.35;;;16.10;99.90;;;;;;5052295;28;20039;-64
2021/03/09 04:20:45;;;;;;;13.95;9.43;;;16.10;99.90;;;;;;5052008;28;20040;-64
2021/03/09 04:23:12;;;;;;;11.60;8.55;;;16.00;99.90;;;;;;5052623;28;20025;-66
2021/03/09 04:25:40;;;;;;;12.73;8.60;;;16.00;99.90;;;;;;5052413;28;20104;-67
2021/03/09 04:28:07;;;;;;;10.77;8.52;;;16.00;99.90;;;;;;5051968;28;20028;-66
2021/03/09 04:30:33;;;;;;;10.88;8.52;;;16.00;99.90;;;;;;5051719;28;20098;-69
2021/03/09 04:33:02;;;;;;;11.27;9.00;;;16.00;99.90;;;;;;5052073;28;20380;-66
2021/03/09 04:35:28;;;;;;;11.82;8.68;;;16.00;99.90;;;;;;5051795;28;20025;-67
2021/03/09 04:37:55;;;;;;;12.27;9.02;;;16.00;99.90;;;;;;5050625;28;20074;-70
2021/03/09 04:40:21;;;;;;;11.63;8.73;;;16.00;99.90;;;;;;5051860;28;20036;-70
2021/03/09 04:42:47;;;;;;;12.10;8.40;;;15.90;99.90;;;;;;5051794;28;20495;-65
2021/03/09 04:45:13;;;;;;;12.05;8.77;;;15.90;99.90;;;;;;5051560;28;20396;-67
2021/03/09 04:47:40;;;;;;;13.23;8.48;;;15.90;99.90;;;;;;5051077;28;20535;-67
2021/03/09 04:50:11;;;;;;;11.70;8.32;;;15.90;99.90;;;;;;5051713;28;20052;-64
2021/03/09 04:52:37;;;;;;;11.57;8.48;;;15.90;99.90;;;;;;5051592;28;20389;-69
2021/03/09 04:55:04;;;;;;;13.82;8.50;;;15.90;99.90;;;;;;5051734;28;20029;-70
2021/03/09 04:57:41;;;;;;;11.15;7.97;;;15.90;99.90;;;;;;5051918;28;20024;-69
2021/03/09 05:00:10;;;;;;;18.80;7.40;;;15.90;99.90;;;;;;5051417;28;20755;-67
2021/03/09 05:02:35;;;;;;;9.63;7.93;;;15.80;99.90;;;;;;5051333;28;20166;-69
2021/03/09 05:05:01;;;;;;;13.35;7.82;;;15.80;99.90;;;;;;5051670;28;20025;-69
2021/03/09 05:07:27;;;;;;;10.35;7.40;;;15.80;99.90;;;;;;5050825;28;20021;-69
2021/03/09 05:09:53;;;;;;;10.13;7.78;;;15.80;99.90;;;;;;5051523;28;20049;-67
2021/03/09 05:12:18;;;;;;;10.15;8.10;;;15.80;99.90;;;;;;5051952;28;20380;-69
2021/03/09 05:14:44;;;;;;;11.15;7.47;;;15.80;99.90;;;;;;5051434;28;20029;-67
2021/03/09 05:17:09;;;;;;;8.55;6.72;;;15.80;99.90;;;;;;5051100;28;20496;-70
2021/03/09 05:19:35;;;;;;;8.68;6.88;;;15.80;99.90;;;;;;5051452;28;20032;-68
2021/03/09 05:22:01;;;;;;;10.13;7.97;;;15.70;99.90;;;;;;5051196;28;20020;-67
2021/03/09 05:24:26;;;;;;;9.70;6.90;;;15.70;99.90;;;;;;5051745;28;20067;-68
2021/03/09 05:26:53;;;;;;;9.70;6.82;;;15.70;99.90;;;;;;5051580;28;20534;-71
2021/03/09 05:29:18;;;;;;;9.13;7.22;;;15.70;99.90;;;;;;5051444;28;20033;-68
2021/03/09 05:31:44;;;;;;;9.50;7.30;;;15.60;99.90;;;;;;5050710;28;20439;-69
2021/03/09 05:34:09;;;;;;;9.38;7.00;;;15.60;99.90;;;;;;5051207;28;20075;-68
2021/03/09 05:36:35;;;;;;;9.65;7.07;;;15.60;99.90;;;;;;5051348;28;20061;-69
2021/03/09 05:39:01;;;;;;;9.43;7.15;;;15.60;99.90;;;;;;5050810;28;20074;-68
2021/03/09 05:41:27;;;;;;;10.70;7.50;;;15.60;99.90;;;;;;5054327;28;20052;-67
2021/03/09 05:43:52;;;;;;;11.73;7.03;;;15.60;99.90;;;;;;5055289;28;20044;-70
2021/03/09 05:46:18;;;;;;;9.48;6.65;;;15.60;99.90;;;;;;5055081;28;20090;-71
2021/03/09 05:48:44;;;;;;;8.55;6.65;;;15.60;99.90;;;;;;5055110;28;20059;-72
2021/03/09 05:51:10;;;;;;;9.95;7.38;;;15.50;99.90;;;;;;5054906;28;20460;-68
2021/03/09 05:53:35;;;;;;;9.07;7.15;;;15.50;99.90;;;;;;5054997;28;20411;-67
2021/03/09 05:56:04;;;;;;;8.57;6.50;;;15.50;99.90;;;;;;5055500;28;20021;-69
2021/03/09 05:58:30;;;;;;;9.02;6.82;;;15.50;99.90;;;;;;5055381;28;20021;-73
2021/03/09 06:00:56;;;;;;;9.40;6.82;;;15.50;99.90;;;;;;5053936;28;20053;-74
2021/03/09 06:03:25;;;;;;;8.90;7.25;;;15.50;99.90;;;;;;5054787;28;20129;-73
2021/03/09 06:05:51;;;;;;;10.45;6.95;;;15.50;99.90;;;;;;5054482;28;20048;-70
2021/03/09 06:08:17;;;;;;;10.35;7.28;;;15.50;99.90;;;;;;5054782;28;20064;-68
2021/03/09 06:10:43;;;;;;;9.70;7.32;;;15.40;99.90;;;;;;5054236;28;20041;-67
2021/03/09 06:13:08;;;;;;;10.20;6.50;;;15.40;99.90;;;;;;5054612;28;20031;-67
2021/03/09 06:15:54;;;;;;;10.43;7.22;;;15.40;99.90;;;;;;5054760;28;20033;-67
2021/03/09 06:18:24;;;;;;;9.32;7.10;;;15.40;99.90;;;;;;5055440;28;20035;-66
2021/03/09 06:21:06;;;;;;;9.77;6.90;;;15.40;99.90;;;;;;5053337;28;20025;-68
2021/03/09 06:23:31;;;;;;;9.75;7.18;;;15.40;99.90;;;;;;5054727;28;20496;-68
2021/03/09 06:25:57;;;;;;;11.45;7.00;;;15.40;99.90;;;;;;5054778;28;20040;-63
2021/03/09 06:28:32;;;;;;;9.68;6.03;;;15.40;99.90;;;;;;5054420;28;20029;-67
2021/03/09 06:31:11;;;;;;;11.63;5.65;;;15.30;99.90;;;;;;5055900;28;20496;-76
2021/03/09 06:33:37;;;;;;;9.95;5.57;;;15.40;99.90;;;;;;5052659;28;20033;-63
2021/03/09 06:36:10;;;;;;;9.15;5.78;;;15.40;99.90;;;;;;5054419;28;20428;-65
2021/03/09 06:38:37;;;;;;;14.67;6.10;;;15.30;99.90;;;;;;5054543;28;20029;-63
2021/03/09 06:41:15;;;;;;;8.70;6.30;;;15.30;99.40;;;;;;5052276;28;20045;-67
2021/03/09 06:44:00;;;;;;;10.95;5.80;;;15.40;98.90;;;;;;5052730;28;20055;-65
2021/03/09 06:46:26;;;;;;;8.50;5.97;;;15.40;97.70;;;;;;5052123;28;20028;-63
2021/03/09 06:49:03;;;;;;;7.57;5.50;;;15.40;97.20;;;;;;5056656;28;20049;-66
2021/03/09 06:51:34;;;;;;;7.45;4.53;;;15.50;96.90;;;;;;5050577;28;20086;-63
2021/03/09 06:54:08;;;;;;;10.85;4.75;;;15.60;97.90;;;;;;5053028;28;20035;-67
2021/03/09 06:56:36;;;;;;;21.88;12.35;;;15.70;97.60;;;;;;5052871;28;20037;-62
2021/03/09 06:59:21;;;;;;;29.05;18.67;;;15.20;96.60;;;;;;5053380;28;20040;-61
2021/03/09 07:02:01;;;;;;;30.00;20.67;;;14.30;96.20;;;;;;5052749;28;20025;-63
2021/03/09 07:04:27;;;;;;;29.90;21.73;;;13.90;96.60;;;;;;5054134;28;20094;-64
2021/03/09 07:06:53;;;;;;;34.13;21.65;;;13.70;96.60;;;;;;5052633;28;20029;-62
2021/03/09 07:09:18;;;;;;;30.10;22.73;;;13.50;96.70;;;;;;5053392;28;20037;-63
2021/03/09 07:11:44;;;;;;;33.42;23.50;;;13.30;96.80;;;;;;5051665;28;20072;-62
2021/03/09 07:14:13;;;;;;;34.22;23.55;;;13.20;96.90;;;;;;5052787;28;20164;-62
2021/03/09 07:16:40;;;;;;;35.25;23.50;;;13.10;96.90;;;;;;5052058;28;20029;-63
2021/03/09 07:19:08;;;;;;;33.33;22.85;;;13.00;97.10;;;;;;5051864;28;20029;-63
2021/03/09 07:21:34;;;;;;;35.75;23.83;;;13.10;97.60;;;;;;5052580;28;20500;-62
2021/03/09 07:24:02;;;;;;;35.33;24.30;;;13.10;97.20;;;;;;5053603;28;20029;-63
2021/03/09 07:26:28;;;;;;;34.85;21.05;;;13.20;98.20;;;;;;5046009;28;20033;-67
2021/03/09 07:28:58;;;;;;;33.53;19.13;;;13.60;98.90;;;;;;5052241;28;20033;-64
2021/03/09 07:31:25;;;;;;;27.25;17.65;;;15.30;97.60;;;;;;5052088;28;20052;-64
2021/03/09 07:33:53;;;;;;;23.75;16.15;;;16.90;95.40;;;;;;5052900;28;21826;-69
2021/03/09 07:36:20;;;;;;;23.73;14.32;;;17.90;94.20;;;;;;5052133;28;20484;-68
2021/03/09 07:38:49;;;;;;;20.52;13.38;;;18.60;93.50;;;;;;5052642;28;20017;-63
2021/03/09 07:41:16;;;;;;;20.17;12.85;;;19.10;93.00;;;;;;5048781;28;20021;-69
2021/03/09 07:43:42;;;;;;;17.65;10.88;;;19.60;92.70;;;;;;5050546;28;20021;-65
2021/03/09 07:46:11;;;;;;;14.77;10.30;;;19.90;92.80;;;;;;5052229;28;20103;-66
2021/03/09 07:48:37;;;;;;;12.80;8.57;;;20.20;92.30;;;;;;5052208;28;20048;-66
2021/03/09 07:51:04;;;;;;;12.93;8.50;;;20.50;92.20;;;;;;5052785;28;20041;-64
2021/03/09 07:53:30;;;;;;;10.55;7.25;;;20.70;92.00;;;;;;5052185;28;20040;-65
2021/03/09 07:56:08;;;;;;;10.63;6.10;;;20.90;91.90;;;;;;5052126;28;20430;-67
2021/03/09 07:58:34;;;;;;;10.38;5.95;;;21.20;91.70;;;;;;5033400;28;20039;-63
2021/03/09 08:01:08;;;;;;;7.97;5.75;;;21.50;91.90;;;;;;5038045;28;20435;-66
2021/03/09 08:03:38;;;;;;;9.40;5.68;;;21.80;91.40;;;;;;5052963;28;20048;-69
2021/03/09 08:06:06;;;;;;;8.07;4.78;;;22.00;91.40;;;;;;5052515;28;20044;-65
2021/03/09 08:08:47;;;;;;;6.35;4.43;;;22.30;91.30;;;;;;5052970;28;20021;-65
2021/03/09 08:11:24;;;;;;;5.45;4.00;;;22.50;91.50;;;;;;5051273;28;20040;-63
2021/03/09 08:14:08;;;;;;;7.45;3.95;;;22.70;91.10;;;;;;5050425;28;20047;-70
2021/03/09 08:16:36;;;;;;;6.00;3.83;;;22.90;90.90;;;;;;5051634;28;20021;-63
2021/03/09 08:19:20;;;;;;;6.82;3.22;;;23.10;90.90;;;;;;5052194;28;20029;-68
2021/03/09 08:21:59;;;;;;;4.93;3.38;;;23.30;90.80;;;;;;5040970;28;20063;-65
2021/03/09 08:24:40;;;;;;;4.88;3.05;;;23.60;90.70;;;;;;5052770;28;20029;-65
2021/03/09 08:27:28;;;;;;;5.63;3.20;;;23.80;90.50;;;;;;5052015;28;20036;-66
2021/03/09 08:30:06;;;;;;;5.38;2.58;;;24.00;90.50;;;;;;5052341;28;20040;-63
2021/03/09 08:32:35;;;;;;;4.57;2.90;;;24.20;90.50;;;;;;5050727;28;20024;-63
2021/03/09 08:35:13;;;;;;;4.57;2.78;;;23.30;92.20;;;;;;5052590;28;20037;-61
2021/03/09 08:37:40;;;;;;;3.92;2.88;;;23.30;91.60;;;;;;5050723;28;20104;-64
2021/03/09 08:40:11;;;;;;;5.60;2.53;;;23.80;91.30;;;;;;5051856;28;20044;-66
2021/03/09 08:43:00;;;;;;;3.75;2.60;;;24.20;90.90;;;;;;5047348;28;20028;-61
2021/03/09 08:45:42;;;;;;;5.18;2.90;;;23.70;92.40;;;;;;5044350;28;20041;-61
2021/03/09 08:48:09;;;;;;;3.88;2.38;;;23.30;92.20;;;;;;5051123;28;20116;-62
2021/03/09 08:50:41;;;;;;;3.03;2.30;;;23.80;91.70;;;;;;5052040;28;20041;-62
2021/03/09 08:53:31;;;;;;;3.97;2.58;;;24.30;91.30;;;;;;5051670;28;20035;-66
2021/03/09 08:56:02;;;;;;;4.97;2.80;;;23.40;93.00;;;;;;5051489;28;20033;-64
2021/03/09 08:58:28;;;;;;;3.05;2.22;;;23.40;92.50;;;;;;5037074;28;20013;-63
2021/03/09 09:00:54;;;;;;;4.00;2.40;;;24.00;92.00;;;;;;5049961;28;20531;-63
2021/03/09 09:03:33;;;;;;;5.10;2.95;;;24.10;91.80;;;;;;5045080;28;20033;-65
2021/03/09 09:05:58;;;;;;;4.13;2.50;;;23.20;93.20;;;;;;5051758;28;20028;-63
2021/03/09 09:08:24;;;;;;;4.45;2.42;;;23.50;92.90;;;;;;5050878;28;20421;-62
2021/03/09 09:10:50;;;;;;;2.85;2.17;;;24.20;92.20;;;;;;5051816;28;20579;-62
2021/03/09 09:13:15;;;;;;;5.68;2.45;;;23.90;92.90;;;;;;5051335;28;20048;-63
2021/03/09 09:15:41;;;;;;;2.40;2.03;;;23.30;94.80;;;;;;5050503;28;20388;-69
2021/03/09 09:18:09;;;;;;;2.60;1.83;;;23.60;93.60;;;;;;5050192;28;20098;-63
2021/03/09 09:20:38;;;;;;;4.85;2.30;;;24.40;93.00;;;;;;5051762;28;20036;-63
2021/03/09 09:23:11;;;;;;;3.58;2.33;;;23.90;94.00;;;;;;5051244;28;20017;-63
2021/03/09 09:25:42;;;;;;;2.60;2.15;;;23.30;95.00;;;;;;5050408;28;20362;-70
2021/03/09 09:28:08;;;;;;;6.20;2.20;;;23.70;94.30;;;;;;5051254;28;20037;-71
2021/03/09 09:30:40;;;;;;;2.92;2.30;;;24.30;94.00;;;;;;5050997;28;20040;-68
2021/03/09 09:33:08;;;;;;;3.15;2.30;;;23.80;95.30;;;;;;5050499;28;20029;-64
2021/03/09 09:35:34;;;;;;;5.88;2.45;;;23.20;95.80;;;;;;5051664;28;20041;-64
2021/03/09 09:38:20;;;;;;;3.13;1.98;;;23.80;94.60;;;;;;5051154;28;20104;-67
2021/03/09 09:40:49;;;;;;;4.70;2.05;;;24.20;94.30;;;;;;5050509;28;20050;-67
2021/03/09 09:43:20;;;;;;;3.97;2.35;;;23.60;95.60;;;;;;5048969;28;20033;-63
2021/03/09 09:45:49;;;;;;;3.15;2.15;;;23.40;95.40;;;;;;5050317;28;20025;-63
2021/03/09 09:48:20;;;;;;;3.78;1.90;;;24.10;94.60;;;;;;5049715;28;20025;-65
2021/03/09 09:50:48;;;;;;;3.38;2.28;;;24.20;94.60;;;;;;5049797;28;20480;-66
2021/03/09 09:53:38;;;;;;;4.00;2.25;;;23.60;95.60;;;;;;5051559;28;20056;-64
2021/03/09 09:56:26;;;;;;;3.03;1.98;;;23.50;95.60;;;;;;5037184;28;20017;-63
2021/03/09 09:58:57;;;;;;;2.70;2.25;;;24.30;94.70;;;;;;5050379;28;20029;-64
2021/03/09 10:01:31;;;;;;;3.30;2.35;;;23.90;95.50;;;;;;5049140;28;20026;-63
2021/03/09 10:04:08;;;;;;;3.60;1.88;;;23.40;96.20;;;;;;5049216;28;20104;-67
2021/03/09 10:06:39;;;;;;;2.42;1.95;;;23.80;95.60;;;;;;5051457;28;20485;-72
2021/03/09 10:09:24;;;;;;;4.05;2.10;;;24.30;94.80;;;;;;5050618;28;20078;-63
2021/03/09 10:12:01;;;;;;;3.00;2.10;;;23.80;96.10;;;;;;5050739;28;20045;-68
2021/03/09 10:14:29;;;;;;;3.35;1.90;;;23.40;96.30;;;;;;5050850;28;20421;-65
2021/03/09 10:16:55;;;;;;;3.78;2.30;;;23.90;95.50;;;;;;5049467;28;20095;-63
2021/03/09 10:19:22;;;;;;;4.07;2.40;;;24.30;95.00;;;;;;5051340;28;20104;-63
2021/03/09 10:21:54;;;;;;;4.28;2.70;;;23.80;95.80;;;;;;5050660;28;20025;-63
2021/03/09 10:24:31;;;;;;;3.55;2.00;;;23.40;96.20;;;;;;5051255;28;20021;-64
2021/03/09 10:26:58;;;;;;;1.88;1.63;;;24.00;95.60;;;;;;5052586;28;20037;-63
2021/03/09 10:29:29;;;;;;;3.63;2.45;;;24.20;95.30;;;;;;5054311;28;20032;-62
2021/03/09 10:32:00;;;;;;;5.65;2.40;;;23.80;96.10;;;;;;5054931;28;20033;-63
2021/03/09 10:34:54;;;;;;;2.40;1.90;;;23.40;96.20;;;;;;5052063;28;20097;-65
2021/03/09 10:37:39;;;;;;;2.08;1.83;;;24.20;95.70;;;;;;5051616;28;20087;-64
2021/03/09 10:40:13;;;;;;;2.75;1.90;;;24.10;95.90;;;;;;5053050;28;20373;-63
2021/03/09 10:42:47;;;;;;;2.55;1.90;;;23.60;97.00;;;;;;5054865;28;20018;-62
2021/03/09 10:45:15;;;;;;;3.72;2.35;;;23.50;96.40;;;;;;5054282;28;20400;-61
2021/03/09 10:47:42;;;;;;;3.58;2.03;;;24.30;95.20;;;;;;5050966;28;20051;-62
2021/03/09 10:50:09;;;;;;;2.80;1.83;;;24.00;95.80;;;;;;5051829;28;20037;-68
2021/03/09 10:52:35;;;;;;;3.58;1.92;;;23.70;96.60;;;;;;5053552;28;20117;-63
2021/03/09 10:55:01;;;;;;;3.75;1.77;;;23.40;96.50;;;;;;5054469;28;20113;-63
2021/03/09 10:57:27;;;;;;;6.40;2.08;;;24.10;95.60;;;;;;5052678;28;20025;-62
2021/03/09 10:59:52;;;;;;;3.35;1.83;;;24.20;95.90;;;;;;5054279;28;20099;-62
2021/03/09 11:02:18;;;;;;;4.43;1.83;;;23.80;96.70;;;;;;5053717;28;20017;-62
2021/03/09 11:04:43;;;;;;;3.97;1.90;;;23.50;97.10;;;;;;5053375;28;20477;-62
2021/03/09 11:07:09;;;;;;;3.55;1.60;;;23.90;96.20;;;;;;5054288;28;20060;-62
2021/03/09 11:09:35;;;;;;;3.75;2.35;;;24.30;95.70;;;;;;5053133;28;20035;-64
2021/03/09 11:12:00;;;;;;;2.65;2.15;;;23.90;96.70;;;;;;5053991;28;20036;-69
2021/03/09 11:14:26;;;;;;;3.40;1.85;;;23.60;96.80;;;;;;5052677;28;20358;-62
2021/03/09 11:16:52;;;;;;;4.80;2.08;;;23.60;96.30;;;;;;5052246;28;20025;-63
2021/03/09 11:19:17;;;;;;;3.88;1.73;;;24.30;95.10;;;;;;5051686;28;20041;-66
2021/03/09 11:21:43;;;;;;;3.95;2.03;;;23.90;95.30;;;;;;5052001;28;20058;-67
2021/03/09 11:24:09;;;;;;;3.92;1.98;;;23.50;95.30;;;;;;5051754;28;20036;-69
2021/03/09 11:26:35;;;;;;;4.55;2.10;;;23.90;94.70;;;;;;5051107;28;20063;-65
2021/03/09 11:29:01;;;;;;;3.65;1.90;;;24.20;94.60;;;;;;5051794;28;20032;-66
2021/03/09 11:31:27;;;;;;;3.20;1.95;;;23.80;95.10;;;;;;5049343;28;20025;-64
2021/03/09 11:33:55;;;;;;;3.03;1.70;;;23.40;95.20;;;;;;5053620;28;20498;-63
2021/03/09 11:36:21;;;;;;;2.92;1.88;;;23.70;95.00;;;;;;5049192;28;20045;-64
2021/03/09 11:38:48;;;;;;;4.03;1.92;;;24.20;94.30;;;;;;5049671;28;20027;-64
2021/03/09 11:41:17;;;;;;;4.07;2.13;;;23.90;95.50;;;;;;5049284;28;20049;-69
2021/03/09 11:43:42;;;;;;;3.85;1.80;;;23.60;95.20;;;;;;5050434;28;20025;-63
2021/03/09 11:46:09;;;;;;;3.95;1.80;;;23.40;95.20;;;;;;5051129;28;20039;-63
2021/03/09 11:48:34;;;;;;;3.47;1.77;;;24.20;94.40;;;;;;5051711;28;20083;-69
2021/03/09 11:51:00;;;;;;;2.42;2.00;;;24.10;94.40;;;;;;5047959;28;20033;-65
2021/03/09 11:53:26;;;;;;;1.77;1.50;;;23.70;94.60;;;;;;5049901;28;20472;-65
2021/03/09 11:55:52;;;;;;;2.72;1.70;;;23.40;95.00;;;;;;5051816;28;20096;-66
2021/03/09 11:58:19;;;;;;;4.97;1.77;;;23.80;95.00;;;;;;5048430;28;20523;-65
2021/03/09 12:00:45;;;;;;;3.20;1.60;;;24.20;94.20;;;;;;5048120;28;20028;-64
2021/03/09 12:03:10;;;;;;;3.15;1.75;;;23.90;94.50;;;;;;5050118;28;20021;-64
2021/03/09 12:05:36;;;;;;;4.20;1.70;;;23.50;95.90;;;;;;5052202;28;20044;-60
2021/03/09 12:08:02;;;;;;;2.67;1.73;;;23.50;95.10;;;;;;5052153;28;20056;-61
2021/03/09 12:10:28;;;;;;;4.28;2.22;;;23.50;94.90;;;;;;5038584;28;20477;-65
2021/03/09 12:12:54;;;;;;;3.05;2.40;;;23.00;93.50;;;;;;5048864;28;20029;-62
2021/03/09 12:15:20;;;;;;;4.03;2.70;;;22.60;93.20;;;;;;5034503;28;20028;-66
2021/03/09 12:17:45;;;;;;;3.72;2.92;;;22.30;93.20;;;;;;5052085;28;20056;-64
2021/03/09 12:20:11;;;;;;;3.63;2.88;;;22.00;93.10;;;;;;5042029;28;20048;-64
2021/03/09 12:22:37;;;;;;;5.45;2.67;;;21.90;93.20;;;;;;5050409;28;20444;-62
2021/03/09 12:25:05;;;;;;;3.08;2.47;;;21.90;93.90;;;;;;5032701;28;20036;-61
2021/03/09 12:27:30;;;;;;;4.05;2.30;;;21.90;94.40;;;;;;5040138;28;20099;-63
2021/03/09 12:29:56;;;;;;;4.57;2.50;;;21.80;94.30;;;;;;5040830;28;20542;-61
2021/03/09 12:32:22;;;;;;;3.75;2.63;;;21.80;94.50;;;;;;5042698;28;20102;-62
2021/03/09 12:34:47;;;;;;;5.25;2.65;;;21.70;94.40;;;;;;5053161;28;20060;-63
2021/03/09 12:37:13;;;;;;;3.45;2.35;;;21.60;94.30;;;;;;5052864;28;20029;-62
2021/03/09 12:39:39;;;;;;;3.25;2.70;;;21.50;94.00;;;;;;5054828;28;20024;-61
2021/03/09 12:42:05;;;;;;;3.95;2.60;;;21.40;94.10;;;;;;5064889;28;20036;-63
2021/03/09 12:44:30;;;;;;;4.15;2.90;;;21.30;93.90;;;;;;5052260;28;20504;-63
2021/03/09 12:46:56;;;;;;;4.68;2.72;;;21.20;93.80;;;;;;5051697;28;20094;-61
2021/03/09 12:49:21;;;;;;;3.35;2.50;;;21.10;93.90;;;;;;5050871;28;20036;-61
2021/03/09 12:51:47;;;;;;;4.20;2.80;;;21.00;93.80;;;;;;5050791;28;20037;-63